createdAt,value
2018-07-12T00:01:48.369Z,5.67
2018-07-12T00:04:15.767Z,7.03
2018-07-12T00:06:43.140Z,8.23
2018-07-12T00:09:10.491Z,5.30
2018-07-12T00:11:38.670Z,5.80
2018-07-12T00:14:06.004Z,5.80
2018-07-12T00:16:33.370Z,8.23
2018-07-12T00:19:00.704Z,5.73
2018-07-12T00:21:28.321Z,7.77
2018-07-12T00:23:55.675Z,5.90
2018-07-12T00:26:23.040Z,6.50
2018-07-12T00:28:50.383Z,5.90
2018-07-12T00:31:17.794Z,7.13
2018-07-12T00:33:45.218Z,4.97
2018-07-12T00:36:12.578Z,5.17
2018-07-12T00:38:39.920Z,5.00
2018-07-12T00:41:07.283Z,4.73
2018-07-12T00:43:34.687Z,6.70
2018-07-12T00:46:02.023Z,5.97
2018-07-12T00:48:29.437Z,8.77
2018-07-12T00:50:56.791Z,6.70
2018-07-12T00:53:24.182Z,7.63
2018-07-12T00:55:51.566Z,6.43
2018-07-12T00:58:18.923Z,9.20
2018-07-12T01:00:46.313Z,7.63
2018-07-12T01:03:13.674Z,7.13
2018-07-12T01:05:41.023Z,6.70
2018-07-12T01:08:08.435Z,7.53
2018-07-12T01:10:35.840Z,7.13
2018-07-12T01:13:03.213Z,9.73
2018-07-12T01:15:30.609Z,8.43
2018-07-12T01:17:57.990Z,8.67
2018-07-12T01:20:25.425Z,8.13
2018-07-12T01:22:52.886Z,10.20
2018-07-12T01:25:20.223Z,8.37
2018-07-12T01:27:47.619Z,7.63
2018-07-12T01:30:14.991Z,7.77
2018-07-12T01:32:42.403Z,7.63
2018-07-12T01:35:09.746Z,8.77
2018-07-12T01:37:37.103Z,7.70
2018-07-12T01:40:04.486Z,6.87
2018-07-12T01:42:31.890Z,6.83
2018-07-12T01:44:59.266Z,8.43
2018-07-12T01:47:26.671Z,6.33
2018-07-12T01:49:54.014Z,6.80
2018-07-12T01:52:21.759Z,5.90
2018-07-12T01:54:49.094Z,7.13
2018-07-12T01:57:16.460Z,6.70
2018-07-12T01:59:43.806Z,6.67
2018-07-12T02:02:11.173Z,6.23
2018-07-12T02:04:38.573Z,6.37
2018-07-12T02:07:05.954Z,6.07
2018-07-12T02:09:33.306Z,8.57
2018-07-12T02:12:00.658Z,6.23
2018-07-12T02:14:28.027Z,5.10
2018-07-12T02:16:55.408Z,6.90
2018-07-12T02:19:22.821Z,6.00
2018-07-12T02:21:50.209Z,5.10
2018-07-12T02:24:17.582Z,6.87
2018-07-12T02:26:44.970Z,4.80
2018-07-12T02:29:12.343Z,6.07
2018-07-12T02:31:39.715Z,6.47
2018-07-12T02:34:07.103Z,4.80
2018-07-12T02:36:34.482Z,6.40
2018-07-12T02:39:01.850Z,4.37
2018-07-12T02:41:29.202Z,4.83
2018-07-12T02:43:56.562Z,6.70
2018-07-12T02:46:23.899Z,5.60
2018-07-12T02:48:51.275Z,5.13
2018-07-12T02:51:18.628Z,5.93
2018-07-12T02:53:46.027Z,6.23
2018-07-12T02:56:13.413Z,5.07
2018-07-12T02:58:40.795Z,6.57
2018-07-12T03:01:08.217Z,7.23
2018-07-12T03:03:35.593Z,6.23
2018-07-12T03:06:02.932Z,7.93
2018-07-12T03:08:30.282Z,6.40
2018-07-12T03:10:57.615Z,5.80
2018-07-12T03:13:24.996Z,5.47
2018-07-12T03:15:52.399Z,7.13
2018-07-12T03:18:19.800Z,7.67
2018-07-12T03:20:47.799Z,7.73
2018-07-12T03:23:15.178Z,7.13
2018-07-12T03:25:42.551Z,7.67
2018-07-12T03:28:09.954Z,8.53
2018-07-12T03:30:37.348Z,7.80
2018-07-12T03:33:04.692Z,8.37
2018-07-12T03:35:32.059Z,9.27
2018-07-12T03:37:59.446Z,7.90
2018-07-12T03:40:26.894Z,8.70
2018-07-12T03:42:54.200Z,7.27
2018-07-12T03:45:21.551Z,7.30
2018-07-12T03:47:48.983Z,7.00
2018-07-12T03:50:16.428Z,11.90
2018-07-12T03:52:43.787Z,11.23
2018-07-12T03:55:11.130Z,8.20
2018-07-12T03:57:38.510Z,11.23
2018-07-12T04:00:05.887Z,9.50
2018-07-12T04:02:33.286Z,10.70
2018-07-12T04:05:00.945Z,9.90
2018-07-12T04:07:28.339Z,11.90
2018-07-12T04:09:55.754Z,11.93
2018-07-12T04:12:23.097Z,10.90
2018-07-12T04:14:50.457Z,13.83
2018-07-12T04:17:22.283Z,12.90
2018-07-12T04:19:49.697Z,11.80
2018-07-12T04:22:17.049Z,16.80
2018-07-12T04:24:44.415Z,13.77
2018-07-12T04:27:11.758Z,12.03
2018-07-12T04:29:39.118Z,10.90
2018-07-12T04:32:06.542Z,12.93
2018-07-12T04:34:33.958Z,19.33
2018-07-12T04:37:01.343Z,14.27
2018-07-12T04:39:28.753Z,15.90
2018-07-12T04:41:56.185Z,17.43
2018-07-12T04:44:24.025Z,16.83
2018-07-12T04:46:51.659Z,16.80
2018-07-12T04:49:19.398Z,15.87
2018-07-12T04:51:46.783Z,14.00
2018-07-12T04:54:14.175Z,16.27
2018-07-12T04:56:41.523Z,14.17
2018-07-12T04:59:08.934Z,15.67
2018-07-12T05:01:36.348Z,13.17
2018-07-12T05:04:03.694Z,16.23
2018-07-12T05:06:31.554Z,17.73
2018-07-12T05:08:58.911Z,14.77
2018-07-12T05:11:26.270Z,15.80
2018-07-12T05:13:54.476Z,16.63
2018-07-12T05:16:22.452Z,16.20
2018-07-12T05:18:49.827Z,16.20
2018-07-12T05:21:17.307Z,16.60
2018-07-12T05:23:44.846Z,15.07
2018-07-12T05:26:12.222Z,18.17
2018-07-12T05:28:39.617Z,14.13
2018-07-12T05:31:07.291Z,16.20
2018-07-12T05:33:34.682Z,15.50
2018-07-12T05:36:14.425Z,14.20
2018-07-12T05:38:42.693Z,14.60
2018-07-12T05:41:11.347Z,15.70
2018-07-12T05:43:40.235Z,15.30
2018-07-12T05:46:08.786Z,12.77
2018-07-12T05:48:37.291Z,13.70
2018-07-12T05:51:05.986Z,13.63
2018-07-12T05:53:34.522Z,18.80
2018-07-12T05:56:03.074Z,13.83
2018-07-12T05:58:31.674Z,16.70
2018-07-12T06:01:00.310Z,15.70
2018-07-12T06:03:28.843Z,13.77
2018-07-12T06:05:57.419Z,12.23
2018-07-12T06:08:25.930Z,14.10
2018-07-12T06:10:54.523Z,14.90
2018-07-12T06:13:23.106Z,12.60
2018-07-12T06:15:51.779Z,12.63
2018-07-12T06:18:20.391Z,12.83
2018-07-12T06:20:48.957Z,15.53
2018-07-12T06:23:17.477Z,12.33
2018-07-12T06:25:45.972Z,15.30
2018-07-12T06:28:14.491Z,15.60
2018-07-12T06:30:43.043Z,11.50
2018-07-12T06:33:11.571Z,13.70
2018-07-12T06:35:40.084Z,12.43
2018-07-12T06:38:08.598Z,13.32
2018-07-12T06:40:37.170Z,12.30
2018-07-12T06:43:05.902Z,13.57
2018-07-12T06:45:34.447Z,12.63
2018-07-12T06:48:02.943Z,15.32
2018-07-12T06:50:31.431Z,11.33
2018-07-12T06:52:59.951Z,13.63
2018-07-12T06:55:28.456Z,12.17
2018-07-12T06:57:56.987Z,10.45
2018-07-12T07:00:25.507Z,14.80
2018-07-12T07:02:54.034Z,13.53
2018-07-12T07:05:22.520Z,11.53
2018-07-12T07:07:51.074Z,11.37
2018-07-12T07:10:19.603Z,10.47
2018-07-12T07:12:48.203Z,13.40
2018-07-12T07:15:16.761Z,15.93
2018-07-12T07:17:45.328Z,10.15
2018-07-12T07:20:13.904Z,9.68
2018-07-12T07:22:42.528Z,9.15
2018-07-12T07:25:11.111Z,10.65
2018-07-12T07:27:39.727Z,9.68
2018-07-12T07:30:08.267Z,10.10
2018-07-12T07:32:36.830Z,10.05
2018-07-12T07:35:05.380Z,10.20
2018-07-12T07:37:33.570Z,9.78
2018-07-12T07:40:02.083Z,9.28
2018-07-12T07:42:30.639Z,9.85
2018-07-12T07:44:59.156Z,9.48
2018-07-12T07:47:27.671Z,11.15
2018-07-12T07:49:56.171Z,8.88
2018-07-12T07:52:24.770Z,8.43
2018-07-12T07:54:53.275Z,9.03
2018-07-12T07:57:21.819Z,8.78
2018-07-12T07:59:50.337Z,8.98
2018-07-12T08:02:18.866Z,9.95
2018-07-12T08:04:47.447Z,8.93
2018-07-12T08:07:15.714Z,8.83
2018-07-12T08:09:44.259Z,10.53
2018-07-12T08:12:12.985Z,8.45
2018-07-12T08:14:41.790Z,9.15
2018-07-12T08:17:09.965Z,8.38
2018-07-12T08:19:38.462Z,8.70
2018-07-12T08:22:08.707Z,9.88
2018-07-12T08:24:37.333Z,9.13
2018-07-12T08:27:06.251Z,9.15
2018-07-12T08:29:34.903Z,9.48
2018-07-12T08:32:04.619Z,10.55
2018-07-12T08:34:33.327Z,9.68
2018-07-12T08:37:01.823Z,9.05
2018-07-12T08:39:30.307Z,12.13
2018-07-12T08:41:58.790Z,12.20
2018-07-12T08:44:27.287Z,10.60
2018-07-12T08:46:55.759Z,8.58
2018-07-12T08:49:24.246Z,11.03
2018-07-12T08:51:52.755Z,7.72
2018-07-12T08:54:21.243Z,8.35
2018-07-12T08:56:49.703Z,8.08
2018-07-12T08:59:18.250Z,6.15
2018-07-12T09:01:46.791Z,8.30
2018-07-12T09:04:15.542Z,8.48
2018-07-12T09:06:44.074Z,8.73
2018-07-12T09:09:12.567Z,8.23
2018-07-12T09:11:41.040Z,9.90
2018-07-12T09:14:09.523Z,8.88
2018-07-12T09:16:37.988Z,7.40
2018-07-12T09:19:06.576Z,7.03
2018-07-12T09:21:35.583Z,6.97
2018-07-12T09:24:04.301Z,8.10
2018-07-12T09:26:32.942Z,9.13
2018-07-12T09:29:01.544Z,8.35
2018-07-12T09:31:30.135Z,6.55
2018-07-12T09:33:58.743Z,7.28
2018-07-12T09:36:27.327Z,9.83
2018-07-12T09:38:55.897Z,7.37
2018-07-12T09:41:25.000Z,8.38
2018-07-12T09:43:53.742Z,9.08
2018-07-12T09:46:22.350Z,8.30
2018-07-12T09:48:52.084Z,8.50
2018-07-12T09:51:20.669Z,7.35
2018-07-12T09:53:49.230Z,7.62
2018-07-12T09:56:17.930Z,6.67
2018-07-12T09:58:46.360Z,9.23
2018-07-12T10:01:20.413Z,7.90
2018-07-12T10:03:53.441Z,8.60
2018-07-12T10:06:25.738Z,9.85
2018-07-12T10:08:59.910Z,7.37
2018-07-12T10:11:33.761Z,9.40
2018-07-12T10:14:07.640Z,9.70
2018-07-12T10:16:41.486Z,6.72
2018-07-12T10:19:10.145Z,7.00
2018-07-12T10:21:38.798Z,6.58
2018-07-12T10:24:07.360Z,6.67
2018-07-12T10:26:36.388Z,6.78
2018-07-12T10:29:04.980Z,6.50
2018-07-12T10:31:33.584Z,5.28
2018-07-12T10:34:02.160Z,6.60
2018-07-12T10:36:30.748Z,6.90
2018-07-12T10:38:59.311Z,6.72
2018-07-12T10:41:27.910Z,6.60
2018-07-12T10:43:56.536Z,9.53
2018-07-12T10:46:25.139Z,5.47
2018-07-12T10:48:53.705Z,7.30
2018-07-12T10:51:22.318Z,5.97
2018-07-12T10:53:50.954Z,4.55
2018-07-12T10:56:19.620Z,5.35
2018-07-12T10:58:48.243Z,5.10
2018-07-12T11:01:16.800Z,5.03
2018-07-12T11:03:45.550Z,4.25
2018-07-12T11:06:14.196Z,5.08
2018-07-12T11:08:42.749Z,5.30
2018-07-12T11:11:11.362Z,4.00
2018-07-12T11:13:48.364Z,5.08
2018-07-12T11:16:16.980Z,3.75
2018-07-12T11:18:45.556Z,4.42
2018-07-12T11:21:14.939Z,3.60
2018-07-12T11:23:43.486Z,3.47
2018-07-12T11:26:12.582Z,3.55
2018-07-12T11:28:41.665Z,3.92
2018-07-12T11:31:10.403Z,3.65
2018-07-12T11:33:40.998Z,3.92
2018-07-12T11:36:09.935Z,4.12
2018-07-12T11:38:39.476Z,3.05
2018-07-12T11:41:08.611Z,3.55
2018-07-12T11:43:36.882Z,3.85
2018-07-12T11:46:07.818Z,2.70
2018-07-12T11:48:37.975Z,3.67
2018-07-12T11:51:07.636Z,3.98
2018-07-12T11:53:36.248Z,2.60
2018-07-12T11:56:04.871Z,3.35
2018-07-12T11:58:33.527Z,3.65
2018-07-12T12:01:02.308Z,3.08
2018-07-12T12:03:31.411Z,2.85
2018-07-12T12:06:00.008Z,5.30
2018-07-12T12:08:28.583Z,2.55
2018-07-12T12:10:57.205Z,3.70
2018-07-12T12:13:25.804Z,2.87
2018-07-12T12:15:54.427Z,3.20
2018-07-12T12:18:23.016Z,2.50
2018-07-12T12:20:51.529Z,2.98
2018-07-12T12:23:20.131Z,2.62
2018-07-12T12:25:48.703Z,2.58
2018-07-12T12:28:17.320Z,2.60
2018-07-12T12:30:46.011Z,1.87
2018-07-12T12:33:14.574Z,2.83
2018-07-12T12:35:43.095Z,3.00
2018-07-12T12:38:11.638Z,2.95
2018-07-12T12:40:40.185Z,2.67
2018-07-12T12:43:08.786Z,2.08
2018-07-12T12:45:37.366Z,2.65
2018-07-12T12:48:06.015Z,2.83
2018-07-12T12:50:34.571Z,2.35
2018-07-12T12:53:02.809Z,2.75
2018-07-12T12:55:31.399Z,3.25
2018-07-12T12:57:59.984Z,2.25
2018-07-12T13:00:28.487Z,2.60
2018-07-12T13:02:57.069Z,2.20
2018-07-12T13:05:25.620Z,1.87
2018-07-12T13:07:54.237Z,3.15
2018-07-12T13:10:22.827Z,1.72
2018-07-12T13:12:51.467Z,2.12
2018-07-12T13:15:20.053Z,1.95
2018-07-12T13:17:48.690Z,1.45
2018-07-12T13:20:17.321Z,1.57
2018-07-12T13:22:45.932Z,2.12
2018-07-12T13:25:14.508Z,1.90
2018-07-12T13:27:43.150Z,1.95
2018-07-12T13:30:11.703Z,2.65
2018-07-12T13:32:40.319Z,3.83
2018-07-12T13:35:08.923Z,1.85
2018-07-12T13:37:37.562Z,1.60
2018-07-12T13:40:06.299Z,2.45
2018-07-12T13:42:34.867Z,3.62
2018-07-12T13:45:03.617Z,1.62
2018-07-12T13:47:32.220Z,2.67
2018-07-12T13:50:00.792Z,1.82
2018-07-12T13:52:29.379Z,2.42
2018-07-12T13:54:58.505Z,1.90
2018-07-12T13:57:27.180Z,1.98
2018-07-12T13:59:55.965Z,1.98
2018-07-12T14:02:24.597Z,1.67
2018-07-12T14:04:53.403Z,2.75
2018-07-12T14:07:22.864Z,3.10
2018-07-12T14:09:51.090Z,2.00
2018-07-12T14:12:19.711Z,2.60
2018-07-12T14:14:48.413Z,2.10
2018-07-12T14:17:17.112Z,2.47
2018-07-12T14:19:45.805Z,2.42
2018-07-12T14:22:14.456Z,1.67
2018-07-12T14:24:43.062Z,1.70
2018-07-12T14:27:12.015Z,1.75
2018-07-12T14:29:40.801Z,3.15
2018-07-12T14:32:09.617Z,2.65
2018-07-12T14:34:38.299Z,1.75
2018-07-12T14:37:06.983Z,2.60
2018-07-12T14:39:35.635Z,2.20
2018-07-12T14:42:04.532Z,1.80
2018-07-12T14:44:33.251Z,1.50
2018-07-12T14:47:02.129Z,1.80
2018-07-12T14:49:30.849Z,2.45
2018-07-12T14:51:59.563Z,2.25
2018-07-12T14:54:28.310Z,1.92
2018-07-12T14:56:57.084Z,3.45
2018-07-12T14:59:25.788Z,2.70
2018-07-12T15:01:54.487Z,1.82
2018-07-12T15:04:23.063Z,2.37
2018-07-12T15:06:51.713Z,4.70
2018-07-12T15:09:20.548Z,3.12
2018-07-12T15:11:49.060Z,2.00
2018-07-12T15:14:17.731Z,2.52
2018-07-12T15:16:46.301Z,4.47
2018-07-12T15:19:14.962Z,1.90
2018-07-12T15:21:43.881Z,2.95
2018-07-12T15:24:12.418Z,2.05
2018-07-12T15:26:40.936Z,1.80
2018-07-12T15:29:09.519Z,1.98
2018-07-12T15:31:38.212Z,2.08
2018-07-12T15:34:06.679Z,2.20
2018-07-12T15:36:35.228Z,1.60
2018-07-12T15:39:04.916Z,1.72
2018-07-12T15:41:33.452Z,1.62
2018-07-12T15:44:02.020Z,1.60
2018-07-12T15:46:30.855Z,1.95
2018-07-12T15:48:59.383Z,1.65
2018-07-12T15:51:27.941Z,2.70
2018-07-12T15:53:56.478Z,1.67
2018-07-12T15:56:25.051Z,1.72
2018-07-12T15:58:53.567Z,1.70
2018-07-12T16:01:22.146Z,1.85
2018-07-12T16:03:50.643Z,3.42
2018-07-12T16:06:19.179Z,2.20
2018-07-12T16:08:47.668Z,2.27
2018-07-12T16:11:16.356Z,3.25
2018-07-12T16:13:44.843Z,1.72
2018-07-12T16:16:13.388Z,1.62
2018-07-12T16:18:41.923Z,2.12
2018-07-12T16:21:10.433Z,1.62
2018-07-12T16:23:38.960Z,3.05
2018-07-12T16:26:07.524Z,2.52
2018-07-12T16:28:36.123Z,2.08
2018-07-12T16:31:04.663Z,1.75
2018-07-12T16:33:33.196Z,4.90
2018-07-12T16:36:01.847Z,2.05
2018-07-12T16:38:30.403Z,2.85
2018-07-12T16:40:58.947Z,2.55
2018-07-12T16:43:27.445Z,3.50
2018-07-12T16:45:55.947Z,2.15
2018-07-12T16:48:24.456Z,4.17
2018-07-12T16:50:53.016Z,3.10
2018-07-12T16:53:21.523Z,2.33
2018-07-12T16:55:50.054Z,3.15
2018-07-12T16:58:18.574Z,2.15
2018-07-12T17:00:46.769Z,2.10
2018-07-12T17:03:15.298Z,1.72
2018-07-12T17:05:43.815Z,2.00
2018-07-12T17:08:12.382Z,2.25
2018-07-12T17:10:40.876Z,2.00
2018-07-12T17:13:09.371Z,3.47
2018-07-12T17:15:37.896Z,2.37
2018-07-12T17:18:06.427Z,3.65
2018-07-12T17:20:34.920Z,1.55
2018-07-12T17:23:03.555Z,2.40
2018-07-12T17:25:32.023Z,2.98
2018-07-12T17:28:00.645Z,1.80
2018-07-12T17:30:29.128Z,2.50
2018-07-12T17:32:57.645Z,1.98
2018-07-12T17:35:26.114Z,3.20
2018-07-12T17:37:54.650Z,2.60
2018-07-12T17:40:23.372Z,2.20
2018-07-12T17:42:51.895Z,2.42
2018-07-12T17:45:20.403Z,2.00
2018-07-12T17:47:49.006Z,2.42
2018-07-12T17:50:17.452Z,1.98
2018-07-12T17:52:45.963Z,2.08
2018-07-12T17:55:14.498Z,2.00
2018-07-12T17:57:43.036Z,2.35
2018-07-12T18:00:11.515Z,2.20
2018-07-12T18:02:39.998Z,2.75
2018-07-12T18:05:08.495Z,3.20
2018-07-12T18:07:37.073Z,2.02
2018-07-12T18:10:05.923Z,2.00
2018-07-12T18:12:34.467Z,3.52
2018-07-12T18:15:03.070Z,3.35
2018-07-12T18:17:31.589Z,2.62
2018-07-12T18:20:00.111Z,3.00
2018-07-12T18:22:28.618Z,6.58
2018-07-12T18:24:57.143Z,3.42
2018-07-12T18:27:25.667Z,3.47
2018-07-12T18:29:54.173Z,2.60
2018-07-12T18:32:22.746Z,2.08
2018-07-12T18:34:51.231Z,2.85
2018-07-12T18:37:19.779Z,2.45
2018-07-12T18:39:48.274Z,2.40
2018-07-12T18:42:16.757Z,2.60
2018-07-12T18:44:45.222Z,2.20
2018-07-12T18:47:13.757Z,2.10
2018-07-12T18:49:42.248Z,3.08
2018-07-12T18:52:10.797Z,4.33
2018-07-12T18:54:39.550Z,2.40
2018-07-12T18:57:08.258Z,2.77
2018-07-12T18:59:36.810Z,3.52
2018-07-12T19:02:05.311Z,2.55
2018-07-12T19:04:33.843Z,2.72
2018-07-12T19:07:02.347Z,2.40
2018-07-12T19:09:30.876Z,3.58
2018-07-12T19:11:59.375Z,3.17
2018-07-12T19:14:32.552Z,2.42
2018-07-12T19:17:01.050Z,4.05
2018-07-12T19:19:29.646Z,2.75
2018-07-12T19:21:58.173Z,3.25
2018-07-12T19:24:26.666Z,3.47
2018-07-12T19:26:55.383Z,7.30
2018-07-12T19:29:23.874Z,3.70
2018-07-12T19:31:52.987Z,5.28
2018-07-12T19:34:21.705Z,3.20
2018-07-12T19:36:50.436Z,6.65
2018-07-12T19:39:18.973Z,5.00
2018-07-12T19:41:47.536Z,3.65
2018-07-12T19:44:16.167Z,5.17
2018-07-12T19:46:44.800Z,6.50
2018-07-12T19:49:13.455Z,4.12
2018-07-12T19:51:41.963Z,4.12
2018-07-12T19:54:10.456Z,4.30
2018-07-12T19:56:39.150Z,4.37
2018-07-12T19:59:07.663Z,4.90
2018-07-12T20:01:36.211Z,4.97
2018-07-12T20:04:04.867Z,4.67
2018-07-12T20:06:33.428Z,6.17
2018-07-12T20:09:02.012Z,4.80
2018-07-12T20:11:30.559Z,6.97
2018-07-12T20:13:59.115Z,4.85
2018-07-12T20:16:27.640Z,5.58
2018-07-12T20:18:56.527Z,6.10
2018-07-12T20:21:25.183Z,5.15
2018-07-12T20:23:53.752Z,5.15
2018-07-12T20:26:22.554Z,5.40
2018-07-12T20:28:51.080Z,7.40
2018-07-12T20:31:19.666Z,5.83
2018-07-12T20:33:48.280Z,6.47
2018-07-12T20:36:16.870Z,5.15
2018-07-12T20:38:45.416Z,4.90
2018-07-12T20:41:13.971Z,5.50
2018-07-12T20:43:42.503Z,6.58
2018-07-12T20:46:11.056Z,5.28
2018-07-12T20:48:39.587Z,5.37
2018-07-12T20:51:08.119Z,5.10
2018-07-12T20:53:36.733Z,6.40
2018-07-12T20:56:05.322Z,6.60
2018-07-12T20:58:33.843Z,5.12
2018-07-12T21:01:02.414Z,5.00
2018-07-12T21:03:31.001Z,6.33
2018-07-12T21:06:00.030Z,5.53
2018-07-12T21:08:28.609Z,5.75
2018-07-12T21:10:57.132Z,4.83
2018-07-12T21:13:25.616Z,5.57
2018-07-12T21:15:54.152Z,5.67
2018-07-12T21:18:22.718Z,8.10
2018-07-12T21:20:51.431Z,6.53
2018-07-12T21:23:19.932Z,5.40
2018-07-12T21:25:48.467Z,8.58
2018-07-12T21:28:17.006Z,7.23
2018-07-12T21:30:45.557Z,7.53
2018-07-12T21:33:14.093Z,6.70
2018-07-12T21:35:42.635Z,5.93
2018-07-12T21:38:11.294Z,6.03
2018-07-12T21:40:40.380Z,6.10
2018-07-12T21:43:09.399Z,5.93
2018-07-12T21:45:38.212Z,6.50
2018-07-12T21:48:06.992Z,7.07
2018-07-12T21:50:35.483Z,7.60
2018-07-12T21:53:04.215Z,5.87
2018-07-12T21:55:33.184Z,5.80
2018-07-12T21:58:01.785Z,5.30
2018-07-12T22:00:32.190Z,6.80
2018-07-12T22:03:00.927Z,7.47
2018-07-12T22:05:29.657Z,4.93
2018-07-12T22:08:11.738Z,7.90
2018-07-12T22:10:40.920Z,8.70
2018-07-12T22:13:10.627Z,9.13
2018-07-12T22:15:39.352Z,5.57
2018-07-12T22:18:07.920Z,7.47
2018-07-12T22:20:36.864Z,6.13
2018-07-12T22:23:05.595Z,5.60
2018-07-12T22:25:34.147Z,6.70
2018-07-12T22:28:03.059Z,6.17
2018-07-12T22:30:32.057Z,5.43
2018-07-12T22:33:01.721Z,6.97
2018-07-12T22:35:30.410Z,6.47
2018-07-12T22:38:00.154Z,5.07
2018-07-12T22:40:29.179Z,6.43
2018-07-12T22:42:58.454Z,5.47
2018-07-12T22:45:27.292Z,6.00
2018-07-12T22:47:56.218Z,5.97
2018-07-12T22:50:24.988Z,6.77
2018-07-12T22:52:54.205Z,5.37
2018-07-12T22:55:23.137Z,6.47
2018-07-12T22:57:51.993Z,11.47
2018-07-12T23:00:20.668Z,5.73
2018-07-12T23:02:49.795Z,7.73
2018-07-12T23:05:26.633Z,5.43
2018-07-12T23:07:55.144Z,6.43
2018-07-12T23:10:23.643Z,5.73
2018-07-12T23:12:52.099Z,6.67
2018-07-12T23:15:20.599Z,5.72
2018-07-12T23:17:49.099Z,7.85
2018-07-12T23:20:17.606Z,6.93
2018-07-12T23:22:46.103Z,6.27
2018-07-12T23:25:14.621Z,7.10
2018-07-12T23:27:43.123Z,5.93
2018-07-12T23:30:11.612Z,9.50
2018-07-12T23:32:40.139Z,5.70
2018-07-12T23:35:08.656Z,5.40
2018-07-12T23:37:37.137Z,5.10
2018-07-12T23:40:05.715Z,6.80
2018-07-12T23:42:34.223Z,6.43
2018-07-12T23:45:02.709Z,7.27
2018-07-12T23:47:31.207Z,6.23
2018-07-12T23:49:59.702Z,7.20
2018-07-12T23:52:28.229Z,6.73
2018-07-12T23:54:56.746Z,9.53
2018-07-12T23:57:25.263Z,6.50
2018-07-12T23:59:53.739Z,6.00
